createdAt,value
2023-02-13T00:04:08.660Z,15.6
2023-02-13T00:09:08.676Z,15.3
2023-02-13T00:14:08.674Z,15
2023-02-13T00:19:08.661Z,14.7
2023-02-13T00:24:08.647Z,14.4
2023-02-13T00:29:08.670Z,14.3
2023-02-13T00:34:08.688Z,14
2023-02-13T00:39:08.647Z,13.8
2023-02-13T00:44:08.629Z,13.6
2023-02-13T00:49:08.669Z,13.3
2023-02-13T00:54:08.652Z,13.1
2023-02-13T00:59:08.629Z,12.9
2023-02-13T01:04:08.713Z,12.8
2023-02-13T01:09:08.634Z,12.6
2023-02-13T01:14:08.652Z,12.4
2023-02-13T01:19:08.651Z,12.3
2023-02-13T01:24:08.665Z,12.1
2023-02-13T01:29:08.654Z,12
2023-02-13T01:34:08.662Z,11.9
2023-02-13T01:39:08.651Z,11.8
2023-02-13T01:44:08.624Z,11.6
2023-02-13T01:49:08.661Z,11.5
2023-02-13T01:54:08.658Z,11.4
2023-02-13T01:59:08.645Z,11.3
2023-02-13T02:04:08.644Z,11.1
2023-02-13T02:09:08.628Z,11.1
2023-02-13T02:14:08.670Z,10.9
2023-02-13T02:19:08.652Z,10.8
2023-02-13T02:24:08.660Z,10.8
2023-02-13T02:29:08.646Z,10.7
2023-02-13T02:34:08.659Z,10.6
2023-02-13T02:39:08.650Z,10.5
2023-02-13T02:44:08.635Z,10.4
2023-02-13T02:49:08.723Z,10.3
2023-02-13T02:54:08.774Z,10.3
2023-02-13T02:59:08.773Z,10.2
2023-02-13T03:04:08.807Z,10.1
2023-02-13T03:09:08.916Z,10.1
2023-02-13T03:14:08.926Z,10
2023-02-13T03:19:09.018Z,9.9
2023-02-13T03:24:09.038Z,9.9
2023-02-13T03:29:09.113Z,9.8
2023-02-13T03:34:09.146Z,9.8
2023-02-13T03:39:09.153Z,9.7
2023-02-13T03:44:09.150Z,9.6
2023-02-13T03:49:09.296Z,9.6
2023-02-13T03:54:09.179Z,9.6
2023-02-13T03:59:09.156Z,9.5
2023-02-13T04:04:09.145Z,9.4
2023-02-13T04:09:09.146Z,9.4
2023-02-13T04:14:09.171Z,9.3
2023-02-13T04:19:09.254Z,9.3
2023-02-13T04:24:09.146Z,9.3
2023-02-13T04:29:09.295Z,9.3
2023-02-13T04:34:09.250Z,9.2
2023-02-13T04:39:09.287Z,9.1
2023-02-13T04:44:09.158Z,9.1
2023-02-13T04:49:09.279Z,9.1
2023-02-13T04:54:09.297Z,9
2023-02-13T04:59:09.264Z,9
2023-02-13T05:04:09.368Z,8.9
2023-02-13T05:09:09.326Z,8.9
2023-02-13T05:14:09.338Z,8.9
2023-02-13T05:19:09.302Z,8.9
2023-02-13T05:24:09.285Z,8.8
2023-02-13T05:29:09.281Z,8.8
2023-02-13T05:34:09.299Z,8.8
2023-02-13T05:39:09.274Z,8.8
2023-02-13T05:44:09.280Z,8.7
2023-02-13T05:49:09.272Z,8.7
2023-02-13T05:54:09.318Z,8.7
2023-02-13T05:59:09.265Z,8.6
2023-02-13T06:04:09.319Z,8.6
2023-02-13T06:09:09.236Z,8.6
2023-02-13T06:14:09.282Z,8.6
2023-02-13T06:19:09.334Z,8.6
2023-02-13T06:24:09.246Z,8.6
2023-02-13T06:29:09.219Z,8.6
2023-02-13T06:34:09.253Z,8.6
2023-02-13T06:39:09.251Z,8.6
2023-02-13T06:44:09.205Z,8.5
2023-02-13T06:49:09.214Z,8.5
2023-02-13T06:54:09.236Z,8.5
2023-02-13T06:59:09.304Z,8.5
2023-02-13T07:04:09.205Z,8.5
2023-02-13T07:09:09.208Z,8.5
2023-02-13T07:14:09.247Z,8.5
2023-02-13T07:19:09.280Z,8.5
2023-02-13T07:24:09.194Z,8.5
2023-02-13T07:29:11.710Z,8.4
2023-02-13T07:34:09.360Z,8.4
2023-02-13T07:39:09.223Z,8.4
2023-02-13T07:44:09.204Z,8.4
2023-02-13T07:49:09.219Z,8.4
2023-02-13T07:54:09.258Z,8.4
2023-02-13T07:59:09.213Z,8.4
2023-02-13T08:04:09.241Z,8.4
2023-02-13T08:09:09.220Z,8.4
2023-02-13T08:14:09.223Z,8.4
2023-02-13T08:19:09.187Z,8.4
2023-02-13T08:24:09.186Z,8.4
2023-02-13T08:29:09.195Z,8.4
2023-02-13T08:34:09.248Z,8.4
2023-02-13T08:39:09.182Z,8.4
2023-02-13T08:44:09.186Z,8.4
2023-02-13T08:49:09.180Z,8.4
2023-02-13T08:54:09.208Z,8.4
2023-02-13T08:59:09.194Z,8.4
2023-02-13T09:04:09.204Z,8.4
2023-02-13T09:09:09.270Z,8.4
2023-02-13T09:14:09.326Z,8.4
2023-02-13T09:19:09.461Z,8.4
2023-02-13T09:24:09.337Z,8.4
2023-02-13T09:29:09.333Z,8.4
2023-02-13T09:34:09.384Z,8.4
2023-02-13T09:39:09.328Z,8.4
2023-02-13T09:44:09.332Z,8.4
2023-02-13T09:49:09.337Z,8.4
2023-02-13T09:54:09.497Z,8.4
2023-02-13T09:59:09.332Z,8.4
2023-02-13T10:04:09.314Z,8.4
2023-02-13T10:09:09.326Z,8.4
2023-02-13T10:14:09.379Z,8.4
2023-02-13T10:19:09.320Z,8.4
2023-02-13T10:24:09.313Z,8.4
2023-02-13T10:29:09.329Z,8.4
2023-02-13T10:34:09.372Z,8.4
2023-02-13T10:39:09.327Z,8.4
2023-02-13T10:44:09.324Z,8.4
2023-02-13T10:49:09.324Z,8.4
2023-02-13T10:54:09.341Z,8.4
2023-02-13T10:59:09.360Z,8.4
2023-02-13T11:04:09.391Z,8.4
2023-02-13T11:09:09.409Z,8.4
2023-02-13T11:14:09.362Z,8.4
2023-02-13T11:19:09.339Z,8.4
2023-02-13T11:24:09.343Z,8.5
2023-02-13T11:29:09.336Z,8.5
2023-02-13T11:34:09.402Z,8.5
2023-02-13T11:39:09.422Z,8.5
2023-02-13T11:44:09.381Z,8.6
2023-02-13T11:49:09.673Z,8.6
2023-02-13T11:54:09.529Z,8.6
2023-02-13T11:59:09.593Z,8.6
2023-02-13T12:04:09.631Z,8.6
2023-02-13T12:09:09.432Z,8.6
2023-02-13T12:14:09.474Z,8.6
2023-02-13T12:19:09.631Z,8.6
2023-02-13T12:24:09.496Z,8.6
2023-02-13T12:29:09.795Z,8.7
2023-02-13T12:34:09.808Z,8.7
2023-02-13T12:39:09.736Z,8.7
2023-02-13T12:44:09.838Z,8.7
2023-02-13T12:49:09.821Z,8.8
2023-02-13T12:54:09.868Z,8.8
2023-02-13T12:59:09.848Z,8.8
2023-02-13T13:04:09.855Z,8.8
2023-02-13T13:09:09.854Z,8.8
2023-02-13T13:14:09.986Z,8.8
2023-02-13T13:19:10.047Z,8.8
2023-02-13T13:24:09.962Z,8.9
2023-02-13T13:29:09.754Z,8.9
2023-02-13T13:34:09.863Z,8.9
2023-02-13T13:39:09.779Z,8.9
2023-02-13T13:44:09.769Z,8.9
2023-02-13T13:49:09.757Z,8.9
2023-02-13T13:54:09.781Z,8.9
2023-02-13T13:59:09.747Z,8.9
2023-02-13T14:04:09.882Z,8.9
2023-02-13T14:09:09.762Z,8.9
2023-02-13T14:14:09.789Z,8.9
2023-02-13T14:19:09.833Z,8.9
2023-02-13T14:24:09.813Z,9
2023-02-13T14:29:09.800Z,8.9
2023-02-13T14:34:09.861Z,9
2023-02-13T14:39:09.848Z,9
2023-02-13T14:44:09.779Z,9
2023-02-13T14:49:09.801Z,9
2023-02-13T14:54:09.844Z,8.9
2023-02-13T14:59:09.783Z,8.9
2023-02-13T15:04:09.803Z,8.9
2023-02-13T15:09:09.795Z,8.9
2023-02-13T15:14:09.916Z,8.9
2023-02-13T15:19:09.913Z,8.9
2023-02-13T15:24:09.785Z,8.9
2023-02-13T15:29:14.036Z,8.9
2023-02-13T15:34:09.835Z,8.9
2023-02-13T15:39:10.029Z,8.9
2023-02-13T15:44:09.772Z,8.9
2023-02-13T15:49:09.783Z,8.9
2023-02-13T15:54:09.842Z,8.9
2023-02-13T15:59:09.789Z,8.8
2023-02-13T16:04:09.830Z,8.8
2023-02-13T16:09:09.787Z,8.8
2023-02-13T16:14:09.974Z,8.8
2023-02-13T16:19:09.789Z,8.8
2023-02-13T16:24:09.775Z,8.8
2023-02-13T16:29:09.862Z,8.8
2023-02-13T16:34:09.836Z,8.8
2023-02-13T16:39:09.771Z,8.8
2023-02-13T16:44:09.766Z,8.8
2023-02-13T16:49:09.872Z,8.7
2023-02-13T16:54:09.871Z,8.7
2023-02-13T16:59:09.853Z,8.7
2023-02-13T17:04:09.844Z,8.7
2023-02-13T17:09:09.821Z,8.7
2023-02-13T17:14:09.859Z,8.6
2023-02-13T17:19:09.824Z,8.6
2023-02-13T17:24:09.825Z,8.6
2023-02-13T17:29:09.816Z,8.6
2023-02-13T17:34:09.869Z,8.6
2023-02-13T17:39:09.817Z,8.6
2023-02-13T17:44:09.832Z,8.6
2023-02-13T17:49:09.814Z,8.6
2023-02-13T17:54:09.904Z,8.6
2023-02-13T17:59:09.940Z,8.6
2023-02-13T18:04:10.011Z,8.6
2023-02-13T18:09:10.022Z,8.6
2023-02-13T18:14:10.183Z,8.6
2023-02-13T18:19:10.139Z,8.6
2023-02-13T18:24:10.194Z,8.6
2023-02-13T18:29:10.284Z,8.5
2023-02-13T18:34:10.403Z,8.5
2023-02-13T18:39:10.160Z,8.5
2023-02-13T18:44:14.696Z,8.5
2023-02-13T18:49:10.106Z,8.5
2023-02-13T18:54:10.137Z,8.5
2023-02-13T18:59:10.107Z,8.5
2023-02-13T19:04:10.114Z,8.5
2023-02-13T19:09:10.128Z,8.5
2023-02-13T19:14:10.129Z,8.5
2023-02-13T19:19:10.107Z,8.5
2023-02-13T19:24:10.098Z,8.5
2023-02-13T19:29:10.110Z,8.5
2023-02-13T19:34:10.154Z,8.5
2023-02-13T19:39:10.119Z,8.5
2023-02-13T19:44:10.104Z,8.5
2023-02-13T19:49:10.107Z,8.5
2023-02-13T19:54:10.137Z,8.5
2023-02-13T19:59:10.104Z,8.5
2023-02-13T20:04:10.104Z,8.5
2023-02-13T20:09:10.106Z,8.5
2023-02-13T20:14:10.120Z,8.5
2023-02-13T20:19:10.139Z,8.5
2023-02-13T20:24:10.154Z,8.5
2023-02-13T20:29:10.159Z,8.4
2023-02-13T20:34:10.192Z,8.4
2023-02-13T20:39:10.239Z,8.4
2023-02-13T20:44:10.127Z,8.4
2023-02-13T20:49:10.144Z,8.4
2023-02-13T20:54:10.154Z,8.4
2023-02-13T20:59:10.139Z,8.4
2023-02-13T21:04:10.123Z,8.4
2023-02-13T21:09:10.146Z,8.4
2023-02-13T21:14:10.147Z,8.4
2023-02-13T21:19:10.120Z,8.4
2023-02-13T21:24:10.115Z,8.4
2023-02-13T21:29:10.118Z,8.4
2023-02-13T21:34:10.158Z,8.4
2023-02-13T21:39:10.148Z,8.4
2023-02-13T21:44:10.131Z,8.4
2023-02-13T21:49:10.140Z,8.4
2023-02-13T21:54:10.175Z,8.4
2023-02-13T21:59:10.150Z,8.4
2023-02-13T22:04:10.124Z,8.3
2023-02-13T22:09:10.148Z,8.3
2023-02-13T22:14:10.162Z,8.3
2023-02-13T22:19:10.132Z,8.3
2023-02-13T22:24:10.123Z,8.3
2023-02-13T22:29:10.152Z,8.3
2023-02-13T22:34:10.158Z,8.3
2023-02-13T22:39:10.176Z,8.3
2023-02-13T22:44:10.150Z,8.3
2023-02-13T22:49:10.129Z,8.3
2023-02-13T22:54:10.140Z,8.3
2023-02-13T22:59:10.119Z,8.3
2023-02-13T23:04:10.130Z,8.3
2023-02-13T23:09:10.107Z,8.3
2023-02-13T23:14:10.207Z,8.3
2023-02-13T23:19:10.107Z,8.2
2023-02-13T23:24:10.098Z,8.2
2023-02-13T23:29:10.116Z,8.2
2023-02-13T23:34:10.133Z,8.2
2023-02-13T23:39:10.123Z,8.2
2023-02-13T23:44:10.108Z,8.2
2023-02-13T23:49:10.108Z,8.2
2023-02-13T23:54:10.128Z,8.2
2023-02-13T23:59:10.099Z,8.1
